< < Back
Terminal Aerodrome Forecast


Current Version              Previous Versions:   1  2  3  4  5  6  7  8  9  

Terminal Aerodrome Forecast

941
FTUS42 KTAE 010919 AAA
TAFVLD
TAF AMD
KVLD 010919Z 0109/0206 VRB03KT 5SM BR OVC006
     FM011400 24004KT P6SM SCT030
     FM012000 30004KT P6SM VCTS BKN040CB=

Latest METAR

085
SAUS70 KWBC 020700 RRC
MTRVLD
METAR KVLD 020653Z AUTO 11003KT 10SM CLR 18/17 A3015 RMK AO2 SLP214
T01780167 TSNO


USA.gov is the U.S. government's official web portal to all federal, state and local government web resources and services.